Time;durP1;ratioP1;P1;durP2;ratioP2;P2;SDS_P1;SDS_P2;PMS_P1;PMS_P2;Temp;Humidity;BMP_temperature;BMP_pressure;BME280_temperature;BME280_humidity;BME280_pressure;Samples;Min_cycle;Max_cycle;Signal;HPM_P1;HPM_P2
2024/01/06 00:00:51;;;;;;;17.40;9.20;;;;;;;0.69;81.63;98256.96;107989;1307;22244;-39
2024/01/06 00:03:17;;;;;;;19.30;8.50;;;;;;;0.67;81.79;98260.30;107975;1307;22623;-38
2024/01/06 00:05:42;;;;;;;13.30;7.40;;;;;;;0.65;81.65;98257.11;107982;1307;22432;-38
2024/01/06 00:08:08;;;;;;;14.00;8.30;;;;;;;0.62;81.84;98247.86;107998;1307;22408;-38
2024/01/06 00:10:33;;;;;;;14.50;8.20;;;;;;;0.62;81.92;98251.48;107996;1307;22217;-39
2024/01/06 00:12:58;;;;;;;16.20;8.50;;;;;;;0.62;81.95;98254.60;107982;1307;22888;-38
2024/01/06 00:15:23;;;;;;;15.30;8.70;;;;;;;0.59;82.18;98252.64;107991;1307;22298;-39
2024/01/06 00:17:49;;;;;;;14.50;8.20;;;;;;;0.56;82.17;98254.11;107991;1307;23327;-40
2024/01/06 00:20:14;;;;;;;14.30;7.90;;;;;;;0.54;82.11;98248.65;107982;1307;22306;-40
2024/01/06 00:22:41;;;;;;;15.90;8.60;;;;;;;0.48;82.44;98242.48;107989;1307;22424;-40
2024/01/06 00:25:07;;;;;;;17.70;8.80;;;;;;;0.49;82.65;98243.45;107997;1307;22290;-39
2024/01/06 00:27:32;;;;;;;14.60;8.40;;;;;;;0.51;82.90;98242.02;107985;1307;23003;-39
2024/01/06 00:29:57;;;;;;;16.90;8.30;;;;;;;0.53;83.08;98246.60;107993;1307;22403;-39
2024/01/06 00:32:22;;;;;;;18.10;8.60;;;;;;;0.58;83.18;98250.42;107967;1307;22406;-39
2024/01/06 00:34:48;;;;;;;14.80;8.00;;;;;;;0.62;82.98;98251.86;107983;1307;22255;-37
2024/01/06 00:37:13;;;;;;;14.20;7.60;;;;;;;0.63;83.00;98254.40;108000;1307;22452;-38
2024/01/06 00:39:38;;;;;;;12.90;7.70;;;;;;;0.66;83.09;98254.99;107973;1307;23006;-38
2024/01/06 00:42:04;;;;;;;15.20;8.10;;;;;;;0.71;83.08;98259.14;107992;1307;22238;-38
2024/01/06 00:44:29;;;;;;;14.10;7.80;;;;;;;0.73;82.95;98262.70;107979;1307;22395;-39
2024/01/06 00:46:54;;;;;;;21.10;7.80;;;;;;;0.70;82.78;98266.07;107971;1307;22392;-38
2024/01/06 00:49:20;;;;;;;13.70;7.60;;;;;;;0.72;82.95;98262.92;107975;1307;25208;-38
2024/01/06 00:51:45;;;;;;;12.70;7.60;;;;;;;0.73;83.06;98257.70;107997;1307;22907;-38
2024/01/06 00:54:10;;;;;;;16.80;7.50;;;;;;;0.73;82.71;98260.79;108006;1307;22472;-38
2024/01/06 00:56:36;;;;;;;12.10;7.20;;;;;;;0.71;82.65;98262.94;107997;1307;22254;-38
2024/01/06 00:59:01;;;;;;;12.70;7.60;;;;;;;0.67;82.88;98264.11;107990;1307;22264;-39
2024/01/06 01:01:26;;;;;;;19.30;7.90;;;;;;;0.66;82.93;98262.05;107968;1295;22181;-38
2024/01/06 01:03:51;;;;;;;14.50;7.40;;;;;;;0.64;82.92;98262.48;107971;1307;23217;-40
2024/01/06 01:06:17;;;;;;;16.00;8.20;;;;;;;0.64;83.12;98265.07;107971;1307;22480;-39
2024/01/06 01:08:42;;;;;;;16.90;8.30;;;;;;;0.63;83.48;98265.62;107984;1307;22465;-40
2024/01/06 01:11:08;;;;;;;16.70;8.20;;;;;;;0.61;83.55;98266.55;107980;1307;22230;-39
2024/01/06 01:13:33;;;;;;;18.40;8.10;;;;;;;0.58;83.89;98267.15;107974;1307;22243;-39
2024/01/06 01:15:58;;;;;;;13.70;8.50;;;;;;;0.55;83.97;98268.81;108005;1307;22922;-38
2024/01/06 01:18:23;;;;;;;15.90;8.40;;;;;;;0.49;83.96;98271.38;107995;1307;22220;-39
2024/01/06 01:20:49;;;;;;;15.00;8.60;;;;;;;0.46;84.61;98277.17;107992;1307;23037;-39
2024/01/06 01:23:14;;;;;;;15.70;8.90;;;;;;;0.43;84.84;98273.66;107998;1307;22275;-39
2024/01/06 01:25:39;;;;;;;16.20;8.40;;;;;;;0.43;84.75;98268.14;108016;1307;22433;-38
2024/01/06 01:28:05;;;;;;;18.10;8.80;;;;;;;0.37;84.80;98259.69;107983;1294;22432;-39
2024/01/06 01:30:32;;;;;;;16.90;9.30;;;;;;;0.35;85.00;98267.17;107999;1307;23150;-39
2024/01/06 01:32:57;;;;;;;17.10;9.10;;;;;;;0.32;85.03;98278.44;108024;1307;22281;-39
2024/01/06 01:35:22;;;;;;;14.80;9.30;;;;;;;0.32;85.25;98285.19;108002;1307;22326;-39
2024/01/06 01:37:48;;;;;;;15.80;9.20;;;;;;;0.34;85.56;98283.76;107983;1307;22250;-39
2024/01/06 01:40:13;;;;;;;19.30;10.10;;;;;;;0.34;85.80;98279.76;108020;1307;22484;-38
2024/01/06 01:42:38;;;;;;;18.10;10.60;;;;;;;0.34;85.72;98278.23;108004;1307;22718;-39
2024/01/06 01:45:05;;;;;;;15.90;10.20;;;;;;;0.35;85.50;98273.20;107984;1307;22400;-39
2024/01/06 01:47:30;;;;;;;19.80;10.60;;;;;;;0.34;85.46;98272.53;107995;1304;23065;-38
2024/01/06 01:49:56;;;;;;;17.70;10.50;;;;;;;0.33;85.46;98274.82;107987;1307;22278;-39
2024/01/06 01:52:22;;;;;;;18.50;10.40;;;;;;;0.31;85.51;98275.02;108014;1307;23225;-38
2024/01/06 01:54:47;;;;;;;23.90;11.90;;;;;;;0.31;85.86;98275.04;108002;1307;22264;-38
2024/01/06 01:57:15;;;;;;;19.50;11.80;;;;;;;0.32;86.12;98275.52;108021;1307;22406;-38
2024/01/06 01:59:41;;;;;;;20.50;12.50;;;;;;;0.32;86.15;98274.83;108005;1307;22777;-39
2024/01/06 02:02:07;;;;;;;27.40;14.30;;;;;;;0.31;86.43;98270.20;107974;1307;23062;-38
2024/01/06 02:04:33;;;;;;;24.90;14.10;;;;;;;0.32;86.35;98269.67;108006;1307;22683;-39
2024/01/06 02:06:58;;;;;;;25.40;14.10;;;;;;;0.30;86.28;98265.23;107962;1307;23165;-39
2024/01/06 02:09:26;;;;;;;25.00;15.20;;;;;;;0.29;86.41;98263.56;107976;1307;22997;-39
2024/01/06 02:11:52;;;;;;;25.20;14.90;;;;;;;0.30;86.64;98255.77;107979;1307;22231;-39
2024/01/06 02:14:17;;;;;;;29.20;16.00;;;;;;;0.32;86.47;98255.02;108003;1307;23007;-39
2024/01/06 02:16:43;;;;;;;26.10;17.10;;;;;;;0.32;86.57;98252.94;107999;1307;22246;-38
2024/01/06 02:19:12;;;;;;;27.40;16.40;;;;;;;0.33;86.66;98259.64;107997;1307;23301;-39
2024/01/06 02:21:41;;;;;;;22.70;14.90;;;;;;;0.29;86.95;98265.80;107975;1307;22230;-39
2024/01/06 02:24:06;;;;;;;28.10;16.20;;;;;;;0.29;87.21;98269.59;107994;1307;22246;-40
2024/01/06 02:26:32;;;;;;;26.50;15.80;;;;;;;0.28;87.58;98264.95;107996;1307;22250;-40
2024/01/06 02:28:57;;;;;;;26.30;14.90;;;;;;;0.30;87.65;98261.12;107991;1307;22985;-39
2024/01/06 02:31:22;;;;;;;26.10;15.60;;;;;;;0.31;87.85;98258.30;107989;1307;22237;-39
2024/01/06 02:33:47;;;;;;;22.00;15.10;;;;;;;0.31;87.88;98253.66;108008;1307;23509;-38
2024/01/06 02:36:13;;;;;;;24.70;14.80;;;;;;;0.31;87.78;98252.62;108001;1307;22476;-39
2024/01/06 02:38:38;;;;;;;28.90;15.10;;;;;;;0.29;88.12;98255.95;108034;1307;22413;-39
2024/01/06 02:43:44;;;;;;;26.20;16.00;;;;;;;0.35;88.23;98250.78;107071;1311;545347;-39
2024/01/06 02:46:10;;;;;;;24.30;14.90;;;;;;;0.33;88.46;98250.83;107405;1312;22426;-40
2024/01/06 02:48:35;;;;;;;25.40;15.40;;;;;;;0.33;88.38;98258.06;107392;1312;23172;-39
2024/01/06 02:51:00;;;;;;;25.40;13.80;;;;;;;0.32;88.62;98261.73;107404;1312;22465;-39
2024/01/06 02:53:25;;;;;;;23.40;13.50;;;;;;;0.28;89.00;98259.09;107745;1309;22252;-39
2024/01/06 02:55:51;;;;;;;24.70;13.80;;;;;;;0.27;88.79;98264.63;107762;1309;22320;-39
2024/01/06 02:58:16;;;;;;;23.60;13.50;;;;;;;0.22;89.12;98267.55;107880;1307;137627;-39
2024/01/06 03:00:41;;;;;;;25.40;14.00;;;;;;;0.19;89.05;98268.49;108017;1306;22869;-39
2024/01/06 03:03:07;;;;;;;21.70;13.00;;;;;;;0.16;89.36;98265.48;108011;1307;22449;-39
2024/01/06 03:05:32;;;;;;;21.80;13.00;;;;;;;0.14;89.53;98267.25;107993;1306;24911;-40
2024/01/06 03:07:57;;;;;;;25.80;14.10;;;;;;;0.13;90.12;98261.63;107999;1307;22254;-40
2024/01/06 03:10:23;;;;;;;21.50;14.00;;;;;;;0.12;89.66;98256.66;108019;1307;22299;-39
2024/01/06 03:12:48;;;;;;;26.30;14.80;;;;;;;0.12;89.85;98254.41;108002;1307;22991;-40
2024/01/06 03:15:13;;;;;;;26.40;14.20;;;;;;;0.13;90.37;98254.54;108027;1306;22940;-40
2024/01/06 03:17:38;;;;;;;25.20;15.00;;;;;;;0.15;90.35;98252.59;108000;1307;22422;-42
2024/01/06 03:20:05;;;;;;;24.20;14.50;;;;;;;0.17;90.45;98245.98;107990;1306;22253;-37
2024/01/06 03:22:30;;;;;;;24.70;14.30;;;;;;;0.20;90.17;98239.70;107993;1307;22469;-38
2024/01/06 03:24:55;;;;;;;28.50;14.60;;;;;;;0.21;90.07;98245.86;107994;1307;22450;-38
2024/01/06 03:27:20;;;;;;;26.30;14.50;;;;;;;0.22;90.03;98258.95;108000;1307;22216;-38
2024/01/06 03:29:46;;;;;;;24.10;14.20;;;;;;;0.25;90.54;98251.43;108014;1307;22275;-38
2024/01/06 03:32:11;;;;;;;22.60;13.50;;;;;;;0.29;90.46;98249.05;108022;1307;23153;-38
2024/01/06 03:34:37;;;;;;;23.00;14.30;;;;;;;0.32;90.23;98252.09;107996;1307;22543;-38
2024/01/06 03:37:02;;;;;;;24.80;14.10;;;;;;;0.28;90.38;98257.55;107997;1307;22778;-38
2024/01/06 03:39:27;;;;;;;25.00;14.10;;;;;;;0.28;90.26;98257.02;107981;1307;22709;-38
2024/01/06 03:41:53;;;;;;;24.60;14.90;;;;;;;0.31;90.26;98265.56;108001;1307;22400;-38
2024/01/06 03:44:18;;;;;;;23.00;13.50;;;;;;;0.35;90.18;98268.55;107952;1305;22307;-39
2024/01/06 03:46:43;;;;;;;25.30;13.60;;;;;;;0.37;89.98;98272.98;107861;1308;22270;-37
2024/01/06 03:49:09;;;;;;;27.40;13.70;;;;;;;0.37;90.08;98276.75;107862;1308;22379;-39
2024/01/06 03:51:34;;;;;;;25.80;14.90;;;;;;;0.38;90.33;98275.34;107869;1308;23075;-38
2024/01/06 03:53:59;;;;;;;27.10;14.70;;;;;;;0.39;90.23;98274.29;107844;1308;23099;-38
2024/01/06 03:56:24;;;;;;;25.10;13.80;;;;;;;0.40;90.27;98271.68;107863;1308;22260;-38
2024/01/06 03:58:50;;;;;;;25.70;14.00;;;;;;;0.44;90.17;98267.77;107856;1308;22436;-37
2024/01/06 04:01:15;;;;;;;25.90;14.70;;;;;;;0.46;90.15;98261.14;107856;1308;22263;-38
2024/01/06 04:03:40;;;;;;;23.10;14.40;;;;;;;0.48;90.18;98257.11;107838;1308;22974;-38
2024/01/06 04:06:06;;;;;;;24.10;14.20;;;;;;;0.43;90.15;98255.89;107843;1308;22241;-38
2024/01/06 04:08:31;;;;;;;24.40;14.30;;;;;;;0.43;90.35;98254.15;107826;1308;23071;-39
2024/01/06 04:10:57;;;;;;;21.40;13.80;;;;;;;0.47;90.28;98256.63;107839;1308;23017;-37
2024/01/06 04:13:24;;;;;;;27.30;15.30;;;;;;;0.48;90.36;98255.23;107806;1308;22395;-38
2024/01/06 04:15:50;;;;;;;27.10;14.50;;;;;;;0.49;90.75;98252.95;107856;1308;22241;-38
2024/01/06 04:18:15;;;;;;;24.80;14.30;;;;;;;0.48;90.64;98251.09;107852;1308;22434;-39
2024/01/06 04:20:40;;;;;;;23.50;14.60;;;;;;;0.43;90.48;98251.59;107819;1308;22983;-38
2024/01/06 04:23:06;;;;;;;25.90;14.50;;;;;;;0.36;90.24;98249.20;107853;1308;22243;-39
2024/01/06 04:25:31;;;;;;;25.10;14.90;;;;;;;0.34;90.47;98250.45;107830;1308;22885;-38
2024/01/06 04:27:56;;;;;;;23.70;14.10;;;;;;;0.30;90.72;98258.16;107863;1308;22244;-38
2024/01/06 04:30:22;;;;;;;29.90;14.60;;;;;;;0.25;90.78;98257.13;107864;1290;23297;-38
2024/01/06 04:32:48;;;;;;;23.80;15.10;;;;;;;0.22;90.69;98266.69;107827;1308;23192;-38
2024/01/06 04:35:14;;;;;;;26.60;15.20;;;;;;;0.19;91.24;98265.41;107877;1308;22313;-38
2024/01/06 04:37:39;;;;;;;23.70;14.60;;;;;;;0.18;91.48;98268.37;107838;1308;22233;-39
2024/01/06 04:40:05;;;;;;;24.60;15.00;;;;;;;0.12;91.92;98263.89;107849;1308;22347;-39
2024/01/06 04:42:30;;;;;;;26.50;15.50;;;;;;;0.12;91.73;98257.49;107862;1308;22281;-38
2024/01/06 04:44:56;;;;;;;29.80;16.30;;;;;;;0.11;91.79;98254.11;107828;1308;23147;-37
2024/01/06 04:47:21;;;;;;;24.80;15.40;;;;;;;0.12;92.00;98248.04;107848;1308;23238;-37
2024/01/06 04:49:46;;;;;;;28.90;16.30;;;;;;;0.13;92.37;98249.40;107845;1308;22492;-38
2024/01/06 04:52:12;;;;;;;30.50;16.10;;;;;;;0.13;92.22;98247.65;107840;1308;23788;-39
2024/01/06 04:54:37;;;;;;;28.50;14.80;;;;;;;0.14;92.15;98241.08;107844;1308;22256;-39
2024/01/06 04:57:04;;;;;;;26.70;15.30;;;;;;;0.14;92.51;98235.05;107870;1308;22247;-39
2024/01/06 04:59:29;;;;;;;25.00;14.80;;;;;;;0.14;92.76;98231.08;107842;1308;23044;-39
2024/01/06 05:01:57;;;;;;;27.70;14.80;;;;;;;0.14;92.84;98234.68;107833;1308;22460;-39
2024/01/06 05:04:22;;;;;;;29.20;14.90;;;;;;;0.18;92.74;98245.27;107844;1308;22949;-38
2024/01/06 05:06:48;;;;;;;26.10;15.20;;;;;;;0.22;92.32;98250.33;107837;1308;22251;-39
2024/01/06 05:09:13;;;;;;;24.00;14.70;;;;;;;0.22;92.65;98257.92;107857;1308;22238;-38
2024/01/06 05:11:38;;;;;;;23.70;14.50;;;;;;;0.25;93.12;98259.71;107829;1308;22266;-39
2024/01/06 05:14:03;;;;;;;28.50;15.30;;;;;;;0.30;92.87;98251.44;107839;1308;22410;-38
2024/01/06 05:16:29;;;;;;;23.50;15.00;;;;;;;0.31;92.57;98257.63;107848;1308;22340;-39
2024/01/06 05:18:54;;;;;;;26.70;14.60;;;;;;;0.30;92.79;98261.62;107850;1308;22275;-39
2024/01/06 05:21:20;;;;;;;23.30;14.00;;;;;;;0.32;92.61;98271.40;107850;1308;22410;-38
2024/01/06 05:23:45;;;;;;;25.60;14.50;;;;;;;0.31;92.55;98266.43;107859;1308;22413;-38
2024/01/06 05:26:11;;;;;;;26.40;14.70;;;;;;;0.33;92.65;98266.89;107864;1308;22482;-37
2024/01/06 05:28:36;;;;;;;26.20;14.70;;;;;;;0.35;92.73;98269.40;107831;1288;22437;-37
2024/01/06 05:31:02;;;;;;;29.50;14.90;;;;;;;0.34;92.39;98275.30;107843;1308;23119;-38
2024/01/06 05:33:27;;;;;;;22.50;14.80;;;;;;;0.31;92.52;98281.42;107851;1308;22336;-39
2024/01/06 05:35:53;;;;;;;21.50;13.80;;;;;;;0.34;92.91;98284.95;107708;1308;22424;-38
2024/01/06 05:38:18;;;;;;;27.10;14.50;;;;;;;0.36;92.69;98291.27;107829;1308;22355;-39
2024/01/06 05:40:43;;;;;;;25.50;14.90;;;;;;;0.34;92.59;98290.80;107828;1308;22256;-39
2024/01/06 05:43:08;;;;;;;27.50;15.00;;;;;;;0.31;92.75;98294.18;107753;1308;22417;-38
2024/01/06 05:45:34;;;;;;;24.60;14.20;;;;;;;0.33;93.23;98295.48;107690;1309;22601;-38
2024/01/06 05:47:59;;;;;;;22.70;13.80;;;;;;;0.35;93.24;98298.20;107698;1310;22974;-38
2024/01/06 05:50:24;;;;;;;22.60;15.10;;;;;;;0.34;92.58;98302.88;107680;1309;22236;-39
2024/01/06 05:52:50;;;;;;;25.10;14.40;;;;;;;0.27;92.37;98298.59;107682;1309;22240;-38
2024/01/06 05:55:15;;;;;;;28.60;15.00;;;;;;;0.29;92.47;98302.34;107704;1309;22281;-38
2024/01/06 05:57:41;;;;;;;25.80;14.50;;;;;;;0.29;93.05;98310.27;107697;1309;22298;-38
2024/01/06 06:00:08;;;;;;;24.20;14.60;;;;;;;0.28;93.48;98313.57;107683;1309;22474;-41
2024/01/06 06:02:34;;;;;;;24.80;14.50;;;;;;;0.29;93.62;98311.67;107678;1309;22283;-39
2024/01/06 06:05:00;;;;;;;24.80;14.20;;;;;;;0.29;93.33;98313.89;107675;1309;22405;-37
2024/01/06 06:07:25;;;;;;;22.60;14.00;;;;;;;0.28;93.36;98312.37;107691;1309;22871;-38
2024/01/06 06:09:50;;;;;;;25.30;14.50;;;;;;;0.25;93.49;98312.26;107670;1309;22261;-37
2024/01/06 06:12:15;;;;;;;27.40;14.70;;;;;;;0.26;93.70;98315.01;107691;1309;22297;-38
2024/01/06 06:14:41;;;;;;;26.90;15.10;;;;;;;0.27;94.02;98316.00;107703;1309;22518;-38
2024/01/06 06:17:07;;;;;;;25.80;13.60;;;;;;;0.28;93.69;98318.75;107703;1309;22358;-39
2024/01/06 06:19:32;;;;;;;26.60;14.90;;;;;;;0.27;93.68;98318.61;107693;1309;23400;-38
2024/01/06 06:21:57;;;;;;;26.80;15.20;;;;;;;0.29;93.76;98318.02;107666;1309;22421;-39
2024/01/06 06:24:22;;;;;;;26.80;15.10;;;;;;;0.30;94.07;98319.20;107692;1309;22453;-39
2024/01/06 06:26:48;;;;;;;25.80;14.90;;;;;;;0.33;94.06;98323.25;107701;1309;23208;-41
2024/01/06 06:29:13;;;;;;;26.20;15.40;;;;;;;0.34;93.98;98330.96;107680;1309;22217;-39
2024/01/06 06:31:38;;;;;;;26.60;14.90;;;;;;;0.36;93.98;98339.89;107678;1309;22468;-39
2024/01/06 06:34:04;;;;;;;22.70;14.10;;;;;;;0.37;94.04;98347.77;107695;1309;22240;-39
2024/01/06 06:36:29;;;;;;;25.30;14.70;;;;;;;0.41;94.18;98355.44;107707;1309;22305;-38
2024/01/06 06:38:54;;;;;;;26.50;15.90;;;;;;;0.45;94.21;98357.59;107696;1309;23074;-38
2024/01/06 06:41:19;;;;;;;24.50;14.30;;;;;;;0.45;94.15;98351.36;107696;1309;22995;-37
2024/01/06 06:43:45;;;;;;;21.50;14.00;;;;;;;0.43;94.23;98353.16;107677;1310;22483;-39
2024/01/06 06:46:10;;;;;;;23.40;14.40;;;;;;;0.43;94.25;98355.89;107668;1310;22399;-38
2024/01/06 06:48:36;;;;;;;23.40;13.90;;;;;;;0.45;94.05;98357.39;107655;1310;22433;-38
2024/01/06 06:51:02;;;;;;;24.70;15.10;;;;;;;0.46;94.21;98355.12;107662;1309;22309;-40
2024/01/06 06:53:27;;;;;;;25.20;14.50;;;;;;;0.45;94.20;98356.36;107673;1309;22245;-38
2024/01/06 06:55:52;;;;;;;25.40;14.80;;;;;;;0.45;94.28;98359.13;107655;1309;22216;-39
2024/01/06 06:58:18;;;;;;;24.90;14.30;;;;;;;0.45;94.10;98355.67;107652;1309;22223;-38
2024/01/06 07:00:43;;;;;;;25.00;15.00;;;;;;;0.43;94.16;98358.83;107502;1310;22339;-39
2024/01/06 07:03:09;;;;;;;25.50;15.10;;;;;;;0.43;94.49;98353.67;107665;1310;23008;-39
2024/01/06 07:05:34;;;;;;;24.80;15.00;;;;;;;0.47;94.86;98355.46;107665;1309;22440;-38
2024/01/06 07:08:00;;;;;;;26.20;14.50;;;;;;;0.47;94.87;98359.91;107656;1309;22417;-38
2024/01/06 07:10:26;;;;;;;23.60;15.30;;;;;;;0.46;95.24;98367.89;107632;1310;22889;-39
2024/01/06 07:12:51;;;;;;;27.20;15.30;;;;;;;0.47;95.39;98368.21;107640;1309;22915;-38
2024/01/06 07:15:16;;;;;;;25.40;15.00;;;;;;;0.48;95.75;98369.38;107653;1309;23285;-39
2024/01/06 07:17:42;;;;;;;27.30;16.10;;;;;;;0.52;95.52;98367.88;107635;1309;22251;-37
2024/01/06 07:20:07;;;;;;;28.30;16.50;;;;;;;0.54;95.82;98370.73;107650;1310;22329;-38
2024/01/06 07:22:34;;;;;;;27.70;15.00;;;;;;;0.56;96.18;98374.65;107638;1310;22889;-38
2024/01/06 07:25:00;;;;;;;25.90;14.60;;;;;;;0.57;95.93;98371.00;107657;1310;22995;-37
2024/01/06 07:27:25;;;;;;;26.50;15.00;;;;;;;0.56;95.35;98374.15;107654;1310;22490;-38
2024/01/06 07:29:50;;;;;;;26.60;15.00;;;;;;;0.56;95.11;98375.54;107637;1310;22601;-38
2024/01/06 07:32:19;;;;;;;25.50;13.90;;;;;;;0.56;95.09;98374.15;107665;1310;22229;-37
2024/01/06 07:34:44;;;;;;;23.50;14.60;;;;;;;0.55;94.99;98377.10;107661;1310;22260;-38
2024/01/06 07:37:09;;;;;;;28.70;15.40;;;;;;;0.54;95.16;98384.71;107649;1310;22159;-38
2024/01/06 07:39:35;;;;;;;26.60;15.70;;;;;;;0.53;94.92;98384.92;107662;1309;22435;-39
2024/01/06 07:42:00;;;;;;;26.20;14.90;;;;;;;0.52;94.99;98385.48;107734;1308;22212;-38
2024/01/06 07:44:25;;;;;;;23.90;15.30;;;;;;;0.50;95.09;98392.44;107862;1308;22324;-39
2024/01/06 07:46:51;;;;;;;29.50;17.00;;;;;;;0.53;95.11;98389.41;107870;1308;22325;-40
2024/01/06 07:49:17;;;;;;;29.00;16.30;;;;;;;0.57;95.26;98396.88;107837;1308;22231;-38
2024/01/06 07:51:42;;;;;;;28.50;15.60;;;;;;;0.58;95.02;98401.52;107846;1308;22257;-38
2024/01/06 07:54:08;;;;;;;28.80;16.00;;;;;;;0.56;94.98;98403.11;107851;1308;22935;-38
2024/01/06 07:56:34;;;;;;;25.20;14.50;;;;;;;0.57;95.28;98406.36;107862;1308;22220;-38
2024/01/06 07:58:59;;;;;;;29.50;16.40;;;;;;;0.56;94.83;98414.30;107870;1308;22239;-37
2024/01/06 08:01:25;;;;;;;28.10;16.60;;;;;;;0.55;94.71;98421.42;107867;1308;22236;-38
2024/01/06 08:03:50;;;;;;;28.30;15.50;;;;;;;0.53;94.61;98420.97;107866;1308;22546;-39
2024/01/06 08:06:15;;;;;;;27.50;14.80;;;;;;;0.51;94.73;98420.67;107843;1308;23129;-39
2024/01/06 08:08:41;;;;;;;24.80;14.90;;;;;;;0.49;94.67;98420.76;107875;1308;22444;-38
2024/01/06 08:11:06;;;;;;;22.50;14.10;;;;;;;0.48;94.63;98428.88;107863;1308;22299;-38
2024/01/06 08:13:31;;;;;;;22.80;13.90;;;;;;;0.47;94.71;98429.94;107845;1308;23005;-38
2024/01/06 08:15:57;;;;;;;24.20;14.60;;;;;;;0.48;94.88;98431.65;107501;1308;22264;-38
2024/01/06 08:18:22;;;;;;;22.70;15.40;;;;;;;0.49;94.95;98434.20;107849;1308;22872;-39
2024/01/06 08:20:48;;;;;;;23.30;14.60;;;;;;;0.51;95.11;98436.55;107847;1308;22420;-40
2024/01/06 08:23:13;;;;;;;22.40;13.90;;;;;;;0.51;95.04;98439.81;107828;1308;22240;-39
2024/01/06 08:25:38;;;;;;;21.20;13.60;;;;;;;0.55;94.86;98441.27;107849;1308;24235;-39
2024/01/06 08:28:04;;;;;;;21.50;12.30;;;;;;;0.55;94.73;98445.06;107827;1308;22471;-39
2024/01/06 08:30:29;;;;;;;20.00;12.80;;;;;;;0.54;94.44;98447.48;107841;1308;22326;-39
2024/01/06 08:32:54;;;;;;;20.30;13.00;;;;;;;0.54;94.21;98452.50;107855;1308;23181;-38
2024/01/06 08:35:20;;;;;;;21.90;12.80;;;;;;;0.49;94.16;98451.61;107841;1308;22426;-40
2024/01/06 08:37:45;;;;;;;21.80;12.90;;;;;;;0.50;94.46;98452.62;107888;1308;25131;-38
2024/01/06 08:40:12;;;;;;;20.10;12.70;;;;;;;0.54;94.26;98456.29;107855;1308;22221;-38
2024/01/06 08:42:37;;;;;;;24.60;15.20;;;;;;;0.54;94.14;98457.17;107868;1308;22450;-40
2024/01/06 08:45:03;;;;;;;24.90;14.40;;;;;;;0.52;94.15;98459.66;107846;1308;22247;-39
2024/01/06 08:47:29;;;;;;;31.70;21.30;;;;;;;0.52;94.41;98462.91;107843;1308;22666;-40
2024/01/06 08:49:54;;;;;;;28.30;18.10;;;;;;;0.53;94.31;98462.35;107852;1308;22238;-41
2024/01/06 08:52:19;;;;;;;23.50;14.00;;;;;;;0.48;94.04;98462.14;107853;1308;22257;-40
2024/01/06 08:54:44;;;;;;;23.10;14.70;;;;;;;0.51;93.97;98464.66;107852;1308;22238;-39
2024/01/06 08:57:10;;;;;;;20.00;13.10;;;;;;;0.47;93.97;98464.10;107885;1308;22430;-37
2024/01/06 08:59:35;;;;;;;17.50;12.90;;;;;;;0.39;94.15;98464.64;107859;1308;22334;-39
2024/01/06 09:02:01;;;;;;;21.00;12.60;;;;;;;0.33;94.13;98462.89;107871;1308;22454;-40
2024/01/06 09:04:26;;;;;;;21.20;12.50;;;;;;;0.35;94.08;98466.64;107855;1308;22322;-39
2024/01/06 09:06:51;;;;;;;23.50;16.20;;;;;;;0.31;94.24;98470.20;107826;1308;22269;-39
2024/01/06 09:09:17;;;;;;;22.20;14.70;;;;;;;0.34;94.39;98466.50;107853;1308;22922;-38
2024/01/06 09:11:44;;;;;;;20.80;13.30;;;;;;;0.36;94.39;98465.58;107866;1308;22959;-40
2024/01/06 09:14:10;;;;;;;20.90;12.80;;;;;;;0.37;94.27;98465.56;107832;1308;22619;-38
2024/01/06 09:16:36;;;;;;;19.60;12.60;;;;;;;0.41;94.23;98466.84;107856;1308;22270;-38
2024/01/06 09:19:01;;;;;;;19.60;12.80;;;;;;;0.41;94.25;98469.41;107858;1308;22416;-39
2024/01/06 09:21:27;;;;;;;19.40;13.20;;;;;;;0.45;94.40;98471.21;107844;1292;22246;-38
2024/01/06 09:23:52;;;;;;;31.20;18.90;;;;;;;0.46;94.04;98479.63;107843;1308;22536;-38
2024/01/06 09:26:17;;;;;;;21.40;13.50;;;;;;;0.45;93.66;98478.11;107866;1308;23082;-39
2024/01/06 09:28:42;;;;;;;20.70;13.70;;;;;;;0.45;93.73;98482.42;107855;1308;23238;-39
2024/01/06 09:31:08;;;;;;;24.50;14.00;;;;;;;0.45;93.84;98483.46;107844;1308;22270;-40
2024/01/06 09:33:34;;;;;;;20.70;13.10;;;;;;;0.43;93.88;98483.66;107857;1308;22281;-39
2024/01/06 09:35:59;;;;;;;19.20;12.20;;;;;;;0.42;93.85;98489.58;107888;1308;22268;-38
2024/01/06 09:38:25;;;;;;;23.90;15.30;;;;;;;0.41;93.79;98493.91;107851;1308;22246;-38
2024/01/06 09:40:52;;;;;;;27.10;18.60;;;;;;;0.35;93.78;98490.27;107851;1308;22264;-38
2024/01/06 09:43:18;;;;;;;22.50;13.40;;;;;;;0.31;93.85;98492.96;107846;1308;22703;-39
2024/01/06 09:45:53;;;;;;;27.60;15.60;;;;;;;0.28;93.88;98499.60;107857;1308;22226;-40
2024/01/06 09:48:20;;;;;;;24.30;14.40;;;;;;;0.23;93.90;98499.91;107867;1308;23103;-38
2024/01/06 09:50:46;;;;;;;26.60;15.20;;;;;;;0.16;94.14;98503.19;107853;1308;22993;-38
2024/01/06 09:53:13;;;;;;;30.50;16.40;;;;;;;0.10;94.54;98501.42;107872;1308;22288;-37
2024/01/06 09:55:39;;;;;;;26.00;16.80;;;;;;;0.10;94.61;98501.45;107848;1308;22317;-39
2024/01/06 09:58:06;;;;;;;23.20;14.60;;;;;;;0.12;95.17;98498.30;107876;1308;22202;-39
2024/01/06 10:00:31;;;;;;;27.90;15.00;;;;;;;0.11;94.89;98499.51;107873;1308;22312;-38
2024/01/06 10:02:57;;;;;;;20.80;13.90;;;;;;;0.12;94.52;98502.42;107871;1308;22409;-38
2024/01/06 10:05:23;;;;;;;24.60;15.30;;;;;;;0.14;94.40;98502.02;107850;1308;22648;-38
2024/01/06 10:07:48;;;;;;;25.10;15.50;;;;;;;0.16;94.61;98507.82;107884;1308;22263;-40
2024/01/06 10:10:14;;;;;;;23.90;14.30;;;;;;;0.20;94.62;98514.46;107852;1308;22325;-39
2024/01/06 10:12:42;;;;;;;19.50;13.20;;;;;;;0.23;94.63;98514.38;107866;1308;22462;-39
2024/01/06 10:15:09;;;;;;;24.30;13.90;;;;;;;0.25;94.23;98516.06;107895;1308;22430;-39
2024/01/06 10:17:38;;;;;;;21.10;13.70;;;;;;;0.22;94.43;98516.13;107848;1308;22670;-39
2024/01/06 10:20:13;;;;;;;22.90;13.60;;;;;;;0.23;94.63;98513.34;107858;1308;22535;-39
2024/01/06 10:22:42;;;;;;;22.80;13.40;;;;;;;0.23;94.46;98513.01;107855;1308;23221;-38
2024/01/06 10:25:11;;;;;;;22.60;14.20;;;;;;;0.28;94.46;98509.95;107867;1308;22505;-40
2024/01/06 10:27:38;;;;;;;24.70;15.60;;;;;;;0.28;94.37;98510.61;107871;1308;22332;-39
2024/01/06 10:30:04;;;;;;;23.00;15.30;;;;;;;0.27;94.36;98511.17;107856;1308;22022;-38
2024/01/06 10:32:33;;;;;;;30.20;16.10;;;;;;;0.29;94.42;98510.09;107887;1308;22425;-37
2024/01/06 10:35:01;;;;;;;22.10;14.40;;;;;;;0.30;94.20;98513.15;107864;1308;23310;-39
2024/01/06 10:37:26;;;;;;;26.80;16.10;;;;;;;0.32;94.36;98515.86;107865;1308;22320;-39
2024/01/06 10:40:18;;;;;;;23.20;13.40;;;;;;;0.34;94.38;98514.45;107754;1308;22575;-37
2024/01/06 10:42:44;;;;;;;19.30;13.20;;;;;;;0.30;93.67;98515.92;107380;1308;23086;-37
2024/01/06 10:45:11;;;;;;;24.00;14.10;;;;;;;0.29;93.79;98517.66;107861;1308;22423;-39
2024/01/06 10:47:38;;;;;;;24.10;15.20;;;;;;;0.25;93.93;98517.75;107879;1308;23058;-39
2024/01/06 10:50:05;;;;;;;25.60;13.70;;;;;;;0.20;94.19;98513.41;107877;1308;22258;-39
2024/01/06 10:52:31;;;;;;;23.60;13.40;;;;;;;0.20;94.21;98514.46;107853;1308;22263;-38
2024/01/06 10:54:57;;;;;;;25.80;14.70;;;;;;;0.22;94.10;98517.18;107884;1308;22444;-38
2024/01/06 10:57:27;;;;;;;24.00;15.80;;;;;;;0.24;94.18;98513.50;107862;1308;22363;-38
2024/01/06 10:59:53;;;;;;;32.50;17.10;;;;;;;0.27;94.27;98514.45;107897;1308;23063;-38
2024/01/06 11:02:19;;;;;;;27.30;16.40;;;;;;;0.31;94.40;98514.52;107860;1308;23262;-39
2024/01/06 11:04:45;;;;;;;31.70;17.40;;;;;;;0.32;94.24;98511.20;107739;1308;22463;-38
2024/01/06 11:07:13;;;;;;;24.20;15.50;;;;;;;0.32;94.18;98509.83;107874;1308;22222;-39
2024/01/06 11:09:47;;;;;;;21.60;13.50;;;;;;;0.32;94.15;98504.84;107858;1308;22219;-39
2024/01/06 11:12:12;;;;;;;22.00;13.40;;;;;;;0.30;93.69;98502.13;107876;1308;22251;-38
2024/01/06 11:14:38;;;;;;;25.20;15.70;;;;;;;0.34;93.69;98501.00;107873;1308;22471;-40